Řízení letového provozu České republiky  
Aktualizace dat:  24.09.2020 17:09:27 UTC English version
   METEO Zobrazení stránky:  24.09.2020 17:10:26 UTC  
vysvětlivky
METAR EDDB 241650Z 22006KT CAVOK 19/09 Q1004 NOSIG=
METAR EDDC 241650Z 23006KT CAVOK 19/12 Q1006 NOSIG=
METAR EDDE 241650Z 19006KT CAVOK 18/08 Q1004 NOSIG=
METAR EDDF 241650Z 18006KT 9999 VCSH FEW038 BKN047 18/10 Q1004 NOSIG=
METAR EDDM 241650Z 08006KT CAVOK 18/14 Q1006 NOSIG=
METAR EDDN 241650Z 08003KT 050V110 CAVOK 18/13 Q1005 NOSIG=
METAR EDDP 241650Z 20005KT CAVOK 20/06 Q1005 NOSIG=
METAR EDDT 241650Z VRB01KT CAVOK 19/09 Q1004 NOSIG=
METAR EDQM NIL
METAR EPBY 241700Z 17005KT CAVOK 19/12 Q1005=
METAR EPGD 241700Z 19004KT CAVOK 19/10 Q1005=
METAR EPKK 241700Z VRB02KT 9999 FEW040 20/15 Q1009=
METAR EPKT 241700Z 18004KT CAVOK 18/14 Q1009=
METAR EPLL 241700Z 14003KT 120V180 9999 SCT045CB 17/15 Q1007=
METAR EPPO 241700Z 21005KT CAVOK 21/13 Q1006=
METAR EPRZ 241700Z 19002KT CAVOK 19/14 Q1009=
METAR EPWA 241700Z 16004KT CAVOK 18/16 Q1007 NOSIG=
METAR EPWR 241700Z 19003KT CAVOK 21/13 Q1007=
METAR LHBP 241700Z 19003KT CAVOK 22/14 Q1010 NOSIG=
METAR LHSM 241645Z AUTO 17003KT CAVOK 21/17 Q1009=
METAR LKBC 241700Z AUTO VRB02KT 9999 SCT130 BKN150 BKN180 18/13 Q1008=
METAR LKCV 241700Z 26004KT CAVOK 19/15 Q1007 NOSIG RMK BLU BLU=
METAR LKKB 241700Z 27003KT CAVOK 20/11 Q1007 NOSIG RMK BLU BLU=
METAR LKKU NIL
METAR LKKV 241700Z VRB02KT CAVOK 15/10 Q1008 RMK REG QNH 1004=
METAR LKLN 241700Z AUTO 00000KT CAVOK 17/12 Q1007=
METAR LKMT 241700Z 18006KT CAVOK 20/15 Q1009 NOSIG RMK REG QNH 1004=
METAR LKNA 241700Z 22005KT CAVOK 19/11 Q1009 NOSIG RMK BLU BLU=
METAR LKPD 241700Z 09002KT CAVOK 20/14 Q1007 NOSIG RMK BLU BLU=
METAR LKPJ 241700Z AUTO 15004KT CAVOK 19/13 Q1008=
METAR LKPR 241700Z 24004KT CAVOK 18/10 Q1007 NOSIG RMK REG QNH 1004=
METAR LKTB 241700Z 14006KT CAVOK 20/14 Q1008 NOSIG RMK REG QNH 1004=
METAR LKVO NIL
METAR LOWI 241650Z 06010KT 010V150 9999 FEW070 BKN100 21/10 Q1006 NOSIG=
METAR LOWL 241650Z AUTO 08007KT 9999 NSC 19/15 Q1007 NOSIG=
METAR LOWS 241650Z 07006KT 050V110 9999 FEW050 19/14 Q1006 NOSIG=
METAR LOWW 241650Z 10005KT CAVOK 22/13 Q1008 NOSIG=
METAR LZIB 241700Z 14005KT CAVOK 21/15 Q1009 NOSIG=
METAR LZKZ 241700Z 13004KT 9999 -SHRA SCT038TCU 19/16 Q1011=
METAR LZMC 241600Z 14004KT CAVOK 23/14 Q1009=
METAR LZPP 241700Z 09006KT CAVOK 19/15 Q1009=
METAR LZSL 241700Z VRB01KT CAVOK 19/15 Q1010=
METAR LZTT 241700Z 16001KT 9999 MIFG FEW030 BKN100 15/14 Q1012=
METAR LZZI 241700Z VRB01KT CAVOK 16/14 Q1010=